Terminal Aerodrome Forecast
Issued by NWS Jacksonville, FL

Home | Current Version | Previous Version | Text Only | Print | Product List | Glossary On
Versions: 1 2 3 4 5 6 7 8 9 10 11 12 13 14 15 16 17 18 19 20 21 22 23 24 25 26
000
FTUS42 KJAX 190500
TAFSSI
TAF
KSSI 190539Z 1906/2006 VRB06KT P6SM VCSH SCT010 BKN035 OVC060
      TEMPO 1906/1910 -SHRA BKN005
     FM191000 VRB06KT P6SM VCSH SCT010 BKN015
      TEMPO 1910/1914 BKN005
     FM191400 36006KT P6SM VCSH SCT010 BKN020
     FM191900 02012KT P6SM VCSH BKN035
     FM200200 36013G20KT P6SM SCT008 BKN010=

USA.gov is the U.S. government's official web portal to all federal, state and local government web resources and services.